Time;durP1;ratioP1;P1;durP2;ratioP2;P2;SDS_P1;SDS_P2;PMS_P1;PMS_P2;Temp;Humidity;BMP_temperature;BMP_pressure;BME280_temperature;BME280_humidity;BME280_pressure;Samples;Min_cycle;Max_cycle;Signal;HPM_P1;HPM_P2
2023/04/27 00:00:15;;;;;;;12.10;4.10;;;;;;;;;;106884;1275;25693;-80
2023/04/27 00:03:04;;;;;;;12.90;4.60;;;;;;;;;;107099;1275;26147;-79
2023/04/27 00:05:35;;;;;;;15.10;4.80;;;;;;;;;;106959;1275;22995;-76
2023/04/27 00:08:05;;;;;;;16.20;4.60;;;;;;;;;;106873;1254;25325;-78
2023/04/27 00:10:32;;;;;;;13.70;4.40;;;;;;;;;;107134;1275;24229;-80
2023/04/27 00:13:19;;;;;;;12.60;4.60;;;;;;;;;;107029;1275;25312;-78
2023/04/27 00:15:45;;;;;;;11.70;4.20;;;;;;;;;;107129;1275;24712;-76
2023/04/27 00:18:15;;;;;;;15.50;5.30;;;;;;;;;;107030;1265;25343;-78
2023/04/27 00:20:41;;;;;;;13.60;4.30;;;;;;;;;;107029;1274;22624;-77
2023/04/27 00:23:29;;;;;;;16.30;5.00;;;;;;;;;;107033;1264;22533;-76
2023/04/27 00:25:56;;;;;;;15.90;4.70;;;;;;;;;;107118;1271;25350;-79
2023/04/27 00:28:25;;;;;;;11.90;4.40;;;;;;;;;;106894;1252;24180;-82
2023/04/27 00:30:55;;;;;;;14.00;4.40;;;;;;;;;;106888;1275;25281;-80
2023/04/27 00:33:22;;;;;;;14.30;4.70;;;;;;;;;;107048;1275;22520;-79
2023/04/27 00:35:51;;;;;;;13.30;4.40;;;;;;;;;;107034;1275;22573;-80
2023/04/27 00:38:20;;;;;;;11.70;4.10;;;;;;;;;;106812;1275;24224;-77
2023/04/27 00:40:51;;;;;;;9.60;3.60;;;;;;;;;;106977;1275;24333;-78
2023/04/27 00:43:20;;;;;;;13.50;4.40;;;;;;;;;;107125;1275;25363;-76
2023/04/27 00:46:20;;;;;;;;;;;;;;;;;;;;;
2023/04/27 00:48:50;;;;;;;9.10;3.70;;;;;;;;;;107048;1254;24359;-77
2023/04/27 00:51:17;;;;;;;11.10;3.90;;;;;;;;;;106940;1272;22520;-82
2023/04/27 00:53:44;;;;;;;13.60;4.00;;;;;;;;;;107106;1257;22530;-78
2023/04/27 00:56:11;;;;;;;12.70;3.70;;;;;;;;;;107106;1275;22510;-79
2023/04/27 00:58:41;;;;;;;11.00;4.00;;;;;;;;;;106993;1275;22752;-76
2023/04/27 01:01:08;;;;;;;9.10;4.00;;;;;;;;;;107031;1256;25381;-77
2023/04/27 01:03:35;;;;;;;12.10;4.20;;;;;;;;;;107019;1275;22590;-76
2023/04/27 01:06:24;;;;;;;;;;;;;;;;;;;;;
2023/04/27 01:09:18;;;;;;;11.40;3.90;;;;;;;;;;107052;1251;24191;-79
2023/04/27 01:11:45;;;;;;;12.20;3.90;;;;;;;;;;106926;1253;24180;-78
2023/04/27 01:14:16;;;;;;;15.20;4.70;;;;;;;;;;107010;1275;24294;-83
2023/04/27 01:16:46;;;;;;;12.50;4.30;;;;;;;;;;107111;1275;25250;-80
2023/04/27 01:19:17;;;;;;;14.40;3.80;;;;;;;;;;107071;1253;22505;-78
2023/04/27 01:22:08;;;;;;;11.30;4.00;;;;;;;;;;107054;1275;25334;-78
2023/04/27 01:24:40;;;;;;;17.70;4.40;;;;;;;;;;107140;1275;25242;-82
2023/04/27 01:27:06;;;;;;;12.30;4.30;;;;;;;;;;107129;1275;22755;-82
2023/04/27 01:29:36;;;;;;;12.70;4.30;;;;;;;;;;107043;1275;25515;-83
2023/04/27 01:32:23;;;;;;;14.90;4.40;;;;;;;;;;106874;1275;22543;-80
2023/04/27 01:35:12;;;;;;;12.50;3.70;;;;;;;;;;107122;1275;25409;-78
2023/04/27 01:37:39;;;;;;;15.20;4.20;;;;;;;;;;107085;1275;25539;-76
2023/04/27 01:40:06;;;;;;;13.40;4.30;;;;;;;;;;106934;1257;22520;-80
2023/04/27 01:42:53;;;;;;;13.90;4.50;;;;;;;;;;107048;1272;23140;-80
2023/04/27 01:45:20;;;;;;;15.70;5.30;;;;;;;;;;107108;1275;22534;-83
2023/04/27 01:47:49;;;;;;;10.00;4.00;;;;;;;;;;107128;1275;24234;-81
2023/04/27 01:50:19;;;;;;;11.00;4.40;;;;;;;;;;106938;1275;22588;-78
2023/04/27 01:53:08;;;;;;;14.30;4.70;;;;;;;;;;107067;1275;22618;-81
2023/04/27 01:55:38;;;;;;;11.90;4.20;;;;;;;;;;107040;1275;22987;-82
2023/04/27 01:58:07;;;;;;;12.20;3.90;;;;;;;;;;107145;1275;22657;-81
2023/04/27 02:00:34;;;;;;;12.10;4.30;;;;;;;;;;106867;1259;22532;-82
2023/04/27 02:03:04;;;;;;;12.60;4.20;;;;;;;;;;106867;1275;22601;-79
2023/04/27 02:05:30;;;;;;;10.00;4.20;;;;;;;;;;107131;1274;22542;-78
2023/04/27 02:08:17;;;;;;;12.30;4.00;;;;;;;;;;107111;1275;25580;-79
2023/04/27 02:10:48;;;;;;;12.20;3.80;;;;;;;;;;107083;1256;24196;-80
2023/04/27 02:13:20;;;;;;;11.80;4.00;;;;;;;;;;106925;1275;25353;-80
2023/04/27 02:15:47;;;;;;;10.10;3.80;;;;;;;;;;107103;1275;22534;-78
2023/04/27 02:18:15;;;;;;;13.40;4.30;;;;;;;;;;107109;1275;22514;-81
2023/04/27 02:21:04;;;;;;;11.20;4.30;;;;;;;;;;107031;1254;25249;-78
2023/04/27 02:23:41;;;;;;;;;;;;;;;;;;;;;
2023/04/27 02:26:47;;;;;;;10.90;4.00;;;;;;;;;;107092;1274;22627;-81
2023/04/27 02:29:15;;;;;;;12.40;3.90;;;;;;;;;;106637;1280;22556;-82
2023/04/27 02:31:45;;;;;;;14.20;4.00;;;;;;;;;;106685;1261;25405;-79
2023/04/27 02:34:13;;;;;;;13.70;4.10;;;;;;;;;;106760;1280;22470;-82
2023/04/27 02:36:40;;;;;;;11.10;4.20;;;;;;;;;;106719;1280;22577;-78
2023/04/27 02:39:18;;;;;;;15.00;4.50;;;;;;;;;;106745;1280;22796;-82
2023/04/27 02:41:45;;;;;;;12.40;4.80;;;;;;;;;;106617;1273;25335;-79
2023/04/27 02:44:16;;;;;;;12.70;3.90;;;;;;;;;;106652;1280;25227;-80
2023/04/27 02:46:45;;;;;;;13.20;4.30;;;;;;;;;;106748;1280;25930;-79
2023/04/27 02:49:12;;;;;;;14.90;4.20;;;;;;;;;;106749;1280;22526;-80
2023/04/27 02:51:39;;;;;;;12.60;4.00;;;;;;;;;;106718;1260;24232;-78
2023/04/27 02:54:06;;;;;;;12.30;3.60;;;;;;;;;;106649;1280;24208;-81
2023/04/27 02:56:33;;;;;;;11.90;3.40;;;;;;;;;;106488;1280;24693;-80
2023/04/27 02:59:00;;;;;;;11.10;3.60;;;;;;;;;;106752;1280;23932;-78
2023/04/27 03:01:30;;;;;;;11.90;3.40;;;;;;;;;;106880;1275;22990;-80
2023/04/27 03:03:56;;;;;;;9.20;2.90;;;;;;;;;;107062;1275;22533;-80
2023/04/27 03:06:24;;;;;;;11.70;3.50;;;;;;;;;;106873;1275;22906;-81
2023/04/27 03:08:51;;;;;;;11.70;3.80;;;;;;;;;;106893;1275;25294;-80
2023/04/27 03:11:38;;;;;;;10.70;3.50;;;;;;;;;;107000;1274;22518;-76
2023/04/27 03:14:05;;;;;;;10.50;2.90;;;;;;;;;;106791;1256;22595;-78
2023/04/27 03:16:39;;;;;;;8.90;3.10;;;;;;;;;;107042;1274;25277;-77
2023/04/27 03:19:09;;;;;;;9.50;3.00;;;;;;;;;;107013;1275;22669;-80
2023/04/27 03:21:38;;;;;;;14.40;4.00;;;;;;;;;;106890;1275;22515;-80
2023/04/27 03:24:05;;;;;;;12.00;3.50;;;;;;;;;;107137;1256;22778;-78
2023/04/27 03:26:35;;;;;;;11.20;3.30;;;;;;;;;;106904;1275;24375;-76
2023/04/27 03:29:05;;;;;;;12.40;3.70;;;;;;;;;;107036;1275;22517;-80
2023/04/27 03:31:35;;;;;;;8.30;3.30;;;;;;;;;;107067;1253;25504;-80
2023/04/27 03:34:22;;;;;;;14.40;3.80;;;;;;;;;;107124;1256;22573;-80
2023/04/27 03:36:52;;;;;;;10.30;3.30;;;;;;;;;;107122;1275;21963;-82
2023/04/27 03:39:18;;;;;;;11.90;3.60;;;;;;;;;;107075;1275;22620;-80
2023/04/27 03:41:46;;;;;;;12.40;3.50;;;;;;;;;;107116;1275;24218;-80
2023/04/27 03:44:58;;;;;;;8.90;3.20;;;;;;;;;;106858;1259;22516;-80
2023/04/27 03:47:26;;;;;;;12.40;3.60;;;;;;;;;;107013;1275;25863;-76
2023/04/27 03:50:03;;;;;;;10.80;3.30;;;;;;;;;;106759;1275;22527;-76
2023/04/27 03:52:30;;;;;;;11.50;3.00;;;;;;;;;;106890;1254;22629;-77
2023/04/27 03:54:57;;;;;;;9.60;3.00;;;;;;;;;;106530;1275;22520;-82
2023/04/27 03:57:24;;;;;;;10.40;3.30;;;;;;;;;;106849;1275;22539;-80
2023/04/27 03:59:54;;;;;;;10.70;3.40;;;;;;;;;;107085;1275;22523;-78
2023/04/27 04:02:22;;;;;;;11.80;3.20;;;;;;;;;;107128;1275;22493;-79
2023/04/27 04:05:09;;;;;;;8.90;2.80;;;;;;;;;;107123;1256;22536;-81
2023/04/27 04:07:52;;;;;;;;;;;;;;;;;;;;;
2023/04/27 04:10:19;;;;;;;10.20;2.90;;;;;;;;;;107064;1275;22520;-77
2023/04/27 04:13:09;;;;;;;9.70;3.00;;;;;;;;;;107136;1275;22572;-77
2023/04/27 04:15:39;;;;;;;9.80;3.50;;;;;;;;;;106925;1259;22664;-79
2023/04/27 04:18:34;;;;;;;10.70;3.60;;;;;;;;;;107120;1275;22595;-80
2023/04/27 04:21:21;;;;;;;13.60;3.40;;;;;;;;;;107134;1275;25282;-80
2023/04/27 04:23:51;;;;;;;10.30;2.90;;;;;;;;;;107021;1254;26496;-82
2023/04/27 04:26:19;;;;;;;10.40;3.30;;;;;;;;;;107076;1275;25325;-80
2023/04/27 04:28:46;;;;;;;8.00;2.90;;;;;;;;;;107140;1275;25363;-80
2023/04/27 04:31:17;;;;;;;11.10;3.50;;;;;;;;;;107183;1275;22986;-78
2023/04/27 04:33:44;;;;;;;10.30;3.00;;;;;;;;;;107085;1275;25290;-80
2023/04/27 04:36:12;;;;;;;12.20;3.30;;;;;;;;;;106903;1272;22519;-77
2023/04/27 04:38:45;;;;;;;9.30;3.20;;;;;;;;;;106902;1275;22526;-80
2023/04/27 04:41:18;;;;;;;9.70;3.00;;;;;;;;;;107028;1275;22538;-82
2023/04/27 04:43:47;;;;;;;11.50;3.20;;;;;;;;;;106916;1275;25538;-78
2023/04/27 04:46:16;;;;;;;9.20;3.30;;;;;;;;;;106629;1275;24189;-77
2023/04/27 04:48:46;;;;;;;11.50;3.10;;;;;;;;;;107031;1275;24164;-80
2023/04/27 04:51:13;;;;;;;11.40;2.70;;;;;;;;;;107126;1275;22570;-79
2023/04/27 04:53:40;;;;;;;10.10;3.00;;;;;;;;;;107133;1275;22626;-79
2023/04/27 04:59:41;;;;;;;12.20;3.90;;;;;;;;;;107186;1254;24218;-77
2023/04/27 05:02:10;;;;;;;13.60;3.40;;;;;;;;;;107099;1275;24209;-83
2023/04/27 05:07:56;;;;;;;11.20;3.30;;;;;;;;;;106730;1280;22576;-80
2023/04/27 05:13:51;;;;;;;11.90;3.20;;;;;;;;;;106379;1284;24396;-76
2023/04/27 05:16:38;;;;;;;10.80;3.10;;;;;;;;;;106385;1269;22541;-76
2023/04/27 05:19:05;;;;;;;14.00;2.90;;;;;;;;;;106580;1284;23878;-75
2023/04/27 05:21:35;;;;;;;13.80;3.80;;;;;;;;;;106330;1284;25444;-77
2023/04/27 05:24:02;;;;;;;10.70;2.80;;;;;;;;;;106332;1285;24196;-77
2023/04/27 05:26:30;;;;;;;16.60;3.00;;;;;;;;;;106500;1268;22546;-76
2023/04/27 05:28:57;;;;;;;11.20;2.90;;;;;;;;;;106278;1285;22658;-75
2023/04/27 05:31:24;;;;;;;13.30;3.40;;;;;;;;;;106120;1285;24493;-77
2023/04/27 05:33:51;;;;;;;12.20;2.60;;;;;;;;;;106065;1285;24204;-76
2023/04/27 05:36:18;;;;;;;10.00;2.50;;;;;;;;;;106387;1285;22778;-81
2023/04/27 05:38:45;;;;;;;11.20;2.70;;;;;;;;;;106598;1280;22569;-77
2023/04/27 05:41:12;;;;;;;12.00;2.60;;;;;;;;;;106563;1280;23898;-79
2023/04/27 05:43:39;;;;;;;10.00;2.80;;;;;;;;;;106676;1276;24249;-78
2023/04/27 05:46:15;;;;;;;12.30;3.10;;;;;;;;;;106977;1259;22505;-77
2023/04/27 05:48:42;;;;;;;17.80;3.60;;;;;;;;;;106972;1267;22523;-76
2023/04/27 05:51:10;;;;;;;13.50;3.20;;;;;;;;;;106902;1276;24195;-80
2023/04/27 05:53:40;;;;;;;15.00;3.30;;;;;;;;;;107128;1276;22531;-77
2023/04/27 05:56:10;;;;;;;13.30;2.90;;;;;;;;;;104719;1276;2697471;-81
2023/04/27 05:58:37;;;;;;;15.90;3.30;;;;;;;;;;106754;1276;25319;-81
2023/04/27 06:01:04;;;;;;;13.10;2.90;;;;;;;;;;106905;1276;25284;-79
2023/04/27 06:03:31;;;;;;;12.80;2.90;;;;;;;;;;106920;1276;23855;-77
2023/04/27 06:05:59;;;;;;;13.90;3.30;;;;;;;;;;106854;1257;24237;-81
2023/04/27 06:08:26;;;;;;;8.90;2.70;;;;;;;;;;106925;1276;22517;-77
2023/04/27 06:10:53;;;;;;;9.80;2.20;;;;;;;;;;106872;1275;22488;-76
2023/04/27 06:13:30;;;;;;;;;;;;;;;;;;;;;
2023/04/27 06:16:25;;;;;;;10.00;2.50;;;;;;;;;;106484;1263;22539;-78
2023/04/27 06:18:52;;;;;;;12.00;2.70;;;;;;;;;;106405;1280;25443;-79
2023/04/27 06:21:22;;;;;;;12.70;2.80;;;;;;;;;;106440;1279;24203;-82
2023/04/27 06:23:48;;;;;;;11.70;2.70;;;;;;;;;;106681;1279;25363;-82
2023/04/27 06:26:15;;;;;;;11.40;2.40;;;;;;;;;;106785;1256;24205;-79
2023/04/27 06:28:42;;;;;;;12.20;4.20;;;;;;;;;;106702;1279;25227;-79
2023/04/27 06:31:09;;;;;;;10.10;2.90;;;;;;;;;;106815;1277;25227;-84
2023/04/27 06:33:41;;;;;;;14.10;3.60;;;;;;;;;;106484;1280;23257;-80
2023/04/27 06:36:30;;;;;;;10.10;2.90;;;;;;;;;;106408;1263;21786;-80
2023/04/27 06:39:05;;;;;;;12.80;3.00;;;;;;;;;;106810;1280;22529;-78
2023/04/27 06:41:32;;;;;;;9.80;2.60;;;;;;;;;;106872;1280;24201;-78
2023/04/27 06:44:00;;;;;;;8.30;2.50;;;;;;;;;;106725;1280;25322;-79
2023/04/27 06:46:26;;;;;;;14.50;2.90;;;;;;;;;;106724;1277;24442;-78
2023/04/27 06:48:53;;;;;;;9.50;2.70;;;;;;;;;;106654;1277;22523;-79
2023/04/27 06:51:20;;;;;;;9.30;2.50;;;;;;;;;;106844;1257;22632;-84
2023/04/27 06:53:46;;;;;;;8.40;2.40;;;;;;;;;;106861;1277;22600;-82
2023/04/27 06:56:13;;;;;;;10.80;3.00;;;;;;;;;;106872;1277;22624;-84
2023/04/27 06:58:40;;;;;;;8.30;2.60;;;;;;;;;;106821;1259;25409;-82
2023/04/27 07:01:06;;;;;;;14.00;2.90;;;;;;;;;;106870;1277;22489;-81
2023/04/27 07:03:35;;;;;;;12.30;2.70;;;;;;;;;;106802;1277;22573;-79
2023/04/27 07:06:01;;;;;;;9.40;2.60;;;;;;;;;;106844;1277;25336;-78
2023/04/27 07:08:28;;;;;;;9.90;2.20;;;;;;;;;;106828;1258;24190;-85
2023/04/27 07:10:55;;;;;;;8.90;2.20;;;;;;;;;;106860;1277;22568;-80
2023/04/27 07:13:21;;;;;;;9.70;2.60;;;;;;;;;;106836;1277;22531;-81
2023/04/27 07:15:52;;;;;;;9.80;2.90;;;;;;;;;;106873;1277;24269;-82
2023/04/27 07:18:19;;;;;;;7.90;1.90;;;;;;;;;;106723;1271;24237;-83
2023/04/27 07:20:46;;;;;;;10.00;2.40;;;;;;;;;;106395;1279;22529;-78
2023/04/27 07:23:12;;;;;;;7.90;2.30;;;;;;;;;;106629;1279;22996;-81
2023/04/27 07:25:39;;;;;;;9.80;2.60;;;;;;;;;;106605;1279;25461;-79
2023/04/27 07:28:06;;;;;;;7.90;2.40;;;;;;;;;;106835;1257;25376;-78
2023/04/27 07:30:35;;;;;;;9.20;2.80;;;;;;;;;;106837;1277;22672;-84
2023/04/27 07:33:02;;;;;;;9.60;3.50;;;;;;;;;;106857;1277;25265;-82
2023/04/27 07:35:28;;;;;;;11.80;4.40;;;;;;;;;;106860;1277;22549;-85
2023/04/27 07:37:55;;;;;;;9.20;3.60;;;;;;;;;;106840;1277;24346;-80
2023/04/27 07:40:23;;;;;;;11.50;3.30;;;;;;;;;;106809;1277;24218;-82
2023/04/27 07:42:57;;;;;;;8.40;3.10;;;;;;;;;;106935;1277;22631;-79
2023/04/27 07:45:31;;;;;;;9.50;3.40;;;;;;;;;;106716;1277;22539;-79
2023/04/27 07:47:59;;;;;;;9.60;3.80;;;;;;;;;;106784;1259;22663;-78
2023/04/27 07:50:28;;;;;;;13.40;4.90;;;;;;;;;;106921;1277;22984;-82
2023/04/27 07:52:56;;;;;;;14.10;5.00;;;;;;;;;;106914;1277;25357;-80
2023/04/27 07:55:23;;;;;;;10.60;4.50;;;;;;;;;;106884;1266;25332;-78
2023/04/27 07:57:51;;;;;;;13.80;4.30;;;;;;;;;;106937;1254;22549;-77
2023/04/27 08:00:18;;;;;;;12.00;4.90;;;;;;;;;;106812;1277;22544;-84
2023/04/27 08:02:45;;;;;;;10.40;5.10;;;;;;;;;;106832;1277;25465;-77
2023/04/27 08:05:12;;;;;;;10.90;4.60;;;;;;;;;;106845;1253;22510;-78
2023/04/27 08:07:39;;;;;;;10.80;4.00;;;;;;;;;;106848;1277;25390;-79
2023/04/27 08:10:07;;;;;;;10.50;4.70;;;;;;;;;;106874;1260;22524;-81
2023/04/27 08:12:33;;;;;;;9.40;4.60;;;;;;;;;;106834;1277;22528;-78
2023/04/27 08:15:01;;;;;;;11.80;4.70;;;;;;;;;;106842;1277;24349;-84
2023/04/27 08:17:27;;;;;;;17.00;5.50;;;;;;;;;;106853;1277;23203;-81
2023/04/27 08:19:54;;;;;;;10.50;4.70;;;;;;;;;;106850;1257;25340;-80
2023/04/27 08:22:21;;;;;;;10.40;4.10;;;;;;;;;;106852;1277;22637;-80
2023/04/27 08:24:48;;;;;;;7.80;4.20;;;;;;;;;;106841;1277;25275;-78
2023/04/27 08:27:15;;;;;;;10.40;4.40;;;;;;;;;;106852;1277;22524;-82
2023/04/27 08:29:48;;;;;;;10.90;4.60;;;;;;;;;;106831;1277;24228;-81
2023/04/27 08:32:16;;;;;;;8.70;3.30;;;;;;;;;;106876;1253;22527;-80
2023/04/27 08:34:44;;;;;;;9.30;3.80;;;;;;;;;;106882;1277;25606;-82
2023/04/27 08:37:11;;;;;;;10.10;3.80;;;;;;;;;;106868;1277;25321;-78
2023/04/27 08:40:00;;;;;;;12.80;4.80;;;;;;;;;;106838;1260;24190;-85
2023/04/27 08:42:26;;;;;;;11.70;4.50;;;;;;;;;;106808;1277;22523;-82
2023/04/27 08:44:53;;;;;;;10.00;4.70;;;;;;;;;;106851;1277;22535;-76
2023/04/27 08:47:20;;;;;;;11.20;4.30;;;;;;;;;;106800;1269;24249;-78
2023/04/27 08:49:47;;;;;;;10.80;4.50;;;;;;;;;;106798;1259;25357;-78
2023/04/27 08:52:17;;;;;;;10.10;4.30;;;;;;;;;;106795;1277;22534;-80
2023/04/27 08:54:44;;;;;;;12.40;4.30;;;;;;;;;;106846;1277;25337;-80
2023/04/27 08:57:12;;;;;;;11.80;4.20;;;;;;;;;;106881;1277;24270;-80
2023/04/27 08:59:39;;;;;;;9.50;3.60;;;;;;;;;;106839;1259;23130;-83
2023/04/27 09:02:17;;;;;;;11.00;3.90;;;;;;;;;;106911;1277;22519;-81
2023/04/27 09:04:43;;;;;;;8.70;3.30;;;;;;;;;;106885;1277;22782;-81
2023/04/27 09:07:19;;;;;;;11.80;3.90;;;;;;;;;;106845;1259;24251;-84
2023/04/27 09:10:07;;;;;;;9.50;3.70;;;;;;;;;;106829;1259;22543;-83
2023/04/27 09:12:34;;;;;;;11.20;4.30;;;;;;;;;;106805;1277;22527;-78
2023/04/27 09:15:09;;;;;;;8.90;2.90;;;;;;;;;;106832;1272;22518;-83
2023/04/27 09:17:37;;;;;;;10.40;4.20;;;;;;;;;;106877;1277;25350;-81
2023/04/27 09:20:11;;;;;;;11.40;4.40;;;;;;;;;;106732;1264;25458;-77
2023/04/27 09:22:46;;;;;;;12.00;4.90;;;;;;;;;;106776;1277;24198;-82
2023/04/27 09:25:26;;;;;;;12.30;4.10;;;;;;;;;;106881;1277;22517;-80
2023/04/27 09:27:53;;;;;;;10.80;4.30;;;;;;;;;;106878;1277;22537;-77
2023/04/27 09:30:20;;;;;;;11.40;4.40;;;;;;;;;;106839;1267;22525;-84
2023/04/27 09:32:51;;;;;;;11.40;4.00;;;;;;;;;;106912;1277;24189;-80
2023/04/27 09:35:22;;;;;;;12.00;4.00;;;;;;;;;;106871;1277;22517;-82
2023/04/27 09:37:51;;;;;;;13.30;4.20;;;;;;;;;;106826;1277;22630;-80
2023/04/27 09:40:22;;;;;;;13.70;4.10;;;;;;;;;;106918;1277;22531;-90
2023/04/27 09:42:50;;;;;;;11.60;4.70;;;;;;;;;;106885;1258;22635;-81
2023/04/27 09:45:20;;;;;;;8.50;3.80;;;;;;;;;;106796;1277;25347;-81
2023/04/27 09:48:07;;;;;;;11.40;4.90;;;;;;;;;;106802;1277;22520;-78
2023/04/27 09:50:40;;;;;;;11.00;4.40;;;;;;;;;;106801;1259;24312;-78
2023/04/27 09:53:17;;;;;;;12.60;3.50;;;;;;;;;;106738;1277;25281;-79
2023/04/27 09:56:34;;;;;;;12.50;5.10;;;;;;;;;;106760;1277;22492;-83
2023/04/27 09:59:20;;;;;;;12.00;5.30;;;;;;;;;;106872;1277;24209;-80
2023/04/27 10:02:00;;;;;;;16.00;5.90;;;;;;;;;;106818;1260;22524;-79
2023/04/27 10:04:47;;;;;;;12.70;4.40;;;;;;;;;;106749;1277;22565;-79
2023/04/27 10:07:15;;;;;;;13.50;4.00;;;;;;;;;;106815;1277;22593;-78
2023/04/27 10:09:45;;;;;;;8.30;3.80;;;;;;;;;;106785;1277;25382;-82
2023/04/27 10:12:22;;;;;;;11.00;4.00;;;;;;;;;;106806;1257;25226;-78
2023/04/27 10:14:50;;;;;;;12.50;4.70;;;;;;;;;;106800;1277;22542;-77
2023/04/27 10:17:17;;;;;;;10.30;3.70;;;;;;;;;;106840;1277;22513;-82
2023/04/27 10:19:56;;;;;;;10.70;3.80;;;;;;;;;;106805;1277;23911;-80
2023/04/27 10:22:37;;;;;;;8.40;3.40;;;;;;;;;;106800;1259;22486;-80
2023/04/27 10:25:23;;;;;;;10.10;3.10;;;;;;;;;;106835;1277;22526;-82
2023/04/27 10:28:00;;;;;;;11.40;3.60;;;;;;;;;;106769;1277;22520;-80
2023/04/27 10:30:31;;;;;;;10.80;2.80;;;;;;;;;;106671;1277;22542;-83
2023/04/27 10:33:02;;;;;;;9.20;2.90;;;;;;;;;;106825;1270;26629;-87
2023/04/27 10:35:40;;;;;;;8.30;2.70;;;;;;;;;;106847;1277;25272;-81
2023/04/27 10:38:09;;;;;;;19.60;3.00;;;;;;;;;;106613;1277;24200;-82
2023/04/27 10:40:37;;;;;;;9.70;2.40;;;;;;;;;;106918;1274;22528;-81
2023/04/27 10:43:08;;;;;;;6.90;2.60;;;;;;;;;;106860;1259;22624;-79
2023/04/27 10:45:34;;;;;;;7.00;2.60;;;;;;;;;;106835;1277;22770;-78
2023/04/27 10:48:01;;;;;;;8.40;3.00;;;;;;;;;;106829;1266;22499;-83
2023/04/27 10:50:30;;;;;;;9.30;2.50;;;;;;;;;;106870;1277;22535;-80
2023/04/27 10:53:02;;;;;;;11.10;2.90;;;;;;;;;;106779;1277;22795;-82
2023/04/27 10:55:30;;;;;;;9.20;2.70;;;;;;;;;;106906;1277;22785;-77
2023/04/27 10:57:57;;;;;;;7.50;2.60;;;;;;;;;;106959;1277;22538;-80
2023/04/27 11:00:31;;;;;;;11.40;4.60;;;;;;;;;;106733;1277;22608;-80
2023/04/27 11:03:13;;;;;;;8.60;3.60;;;;;;;;;;106848;1264;25349;-82
2023/04/27 11:05:41;;;;;;;12.30;3.20;;;;;;;;;;106843;1277;22531;-84
2023/04/27 11:08:09;;;;;;;12.30;3.30;;;;;;;;;;107018;1277;25357;-79
2023/04/27 11:10:42;;;;;;;9.60;3.20;;;;;;;;;;106824;1277;22530;-78
2023/04/27 11:13:10;;;;;;;7.60;2.10;;;;;;;;;;106820;1267;22483;-78
2023/04/27 11:15:44;;;;;;;8.10;2.90;;;;;;;;;;106857;1277;24346;-77
2023/04/27 11:18:11;;;;;;;12.90;4.10;;;;;;;;;;106714;1277;25458;-80
2023/04/27 11:20:37;;;;;;;8.10;3.50;;;;;;;;;;106695;1277;24223;-79
2023/04/27 11:23:04;;;;;;;9.70;3.50;;;;;;;;;;106802;1267;22533;-77
2023/04/27 11:25:31;;;;;;;11.10;3.60;;;;;;;;;;106844;1277;24884;-84
2023/04/27 11:27:58;;;;;;;9.80;4.10;;;;;;;;;;106838;1277;24238;-82
2023/04/27 11:30:25;;;;;;;12.20;5.30;;;;;;;;;;106887;1254;22588;-78
2023/04/27 11:32:52;;;;;;;16.30;7.80;;;;;;;;;;107000;1259;24342;-79
2023/04/27 11:35:19;;;;;;;11.80;4.30;;;;;;;;;;106868;1276;25417;-83
2023/04/27 11:37:55;;;;;;;11.20;4.40;;;;;;;;;;107048;1272;22618;-81
2023/04/27 11:40:22;;;;;;;8.50;3.60;;;;;;;;;;107044;1277;26536;-77
2023/04/27 11:42:56;;;;;;;10.20;4.20;;;;;;;;;;106858;1277;22526;-82
2023/04/27 11:45:24;;;;;;;9.60;3.90;;;;;;;;;;106976;1266;22535;-77
2023/04/27 11:47:51;;;;;;;9.40;3.70;;;;;;;;;;106914;1277;22969;-88
2023/04/27 11:50:18;;;;;;;9.50;4.20;;;;;;;;;;106889;1276;22643;-77
2023/04/27 11:52:47;;;;;;;9.90;3.90;;;;;;;;;;106941;1254;22565;-79
2023/04/27 11:55:17;;;;;;;8.50;4.00;;;;;;;;;;106899;1276;22535;-78
2023/04/27 11:57:44;;;;;;;11.00;4.40;;;;;;;;;;106908;1276;22998;-83
2023/04/27 12:00:13;;;;;;;12.90;4.20;;;;;;;;;;106923;1276;22524;-85
2023/04/27 12:02:40;;;;;;;9.10;3.80;;;;;;;;;;106952;1261;22483;-79
2023/04/27 12:05:08;;;;;;;10.60;3.40;;;;;;;;;;106789;1276;22549;-82
2023/04/27 12:07:44;;;;;;;9.90;3.30;;;;;;;;;;106838;1277;22531;-84
2023/04/27 12:10:11;;;;;;;11.70;3.60;;;;;;;;;;110269;1277;22238;-77
2023/04/27 12:12:38;;;;;;;10.10;4.00;;;;;;;;;;110310;1278;22189;-77
2023/04/27 12:15:05;;;;;;;9.10;3.40;;;;;;;;;;110547;1268;22839;-78
2023/04/27 12:17:32;;;;;;;9.40;3.50;;;;;;;;;;110435;1277;22095;-77
2023/04/27 12:19:59;;;;;;;10.20;3.40;;;;;;;;;;110428;1277;22201;-78
2023/04/27 12:22:25;;;;;;;9.10;3.50;;;;;;;;;;110239;1277;22117;-78
2023/04/27 12:24:52;;;;;;;8.30;3.50;;;;;;;;;;110395;1269;22100;-78
2023/04/27 12:27:19;;;;;;;7.70;3.40;;;;;;;;;;110446;1278;22721;-78
2023/04/27 12:29:46;;;;;;;10.20;3.50;;;;;;;;;;110437;1277;23345;-79
2023/04/27 12:32:16;;;;;;;8.00;3.10;;;;;;;;;;110418;1277;22215;-78
2023/04/27 12:34:43;;;;;;;10.50;3.60;;;;;;;;;;110603;1258;22174;-78
2023/04/27 12:37:10;;;;;;;8.70;3.60;;;;;;;;;;110424;1275;22117;-78
2023/04/27 12:39:37;;;;;;;8.90;3.30;;;;;;;;;;110403;1278;22267;-78
2023/04/27 12:42:04;;;;;;;9.20;2.90;;;;;;;;;;110414;1277;21978;-79
2023/04/27 12:44:31;;;;;;;15.40;3.50;;;;;;;;;;110447;1261;22724;-79
2023/04/27 12:46:58;;;;;;;12.90;3.70;;;;;;;;;;110418;1273;22130;-78
2023/04/27 12:49:28;;;;;;;11.40;4.00;;;;;;;;;;110446;1277;22841;-78
2023/04/27 12:51:56;;;;;;;18.00;3.70;;;;;;;;;;110308;1276;22328;-79
2023/04/27 12:54:23;;;;;;;10.50;3.30;;;;;;;;;;110388;1261;22131;-79
2023/04/27 12:56:52;;;;;;;8.60;3.60;;;;;;;;;;110426;1277;22847;-80
2023/04/27 12:59:19;;;;;;;11.60;3.80;;;;;;;;;;110436;1276;22074;-78
2023/04/27 13:01:49;;;;;;;7.90;3.50;;;;;;;;;;110299;1277;22312;-79
2023/04/27 13:04:17;;;;;;;10.50;3.20;;;;;;;;;;110436;1269;22855;-79
2023/04/27 13:06:47;;;;;;;10.10;3.70;;;;;;;;;;110320;1278;22102;-79
2023/04/27 13:09:15;;;;;;;10.40;3.70;;;;;;;;;;110287;1278;22109;-78
2023/04/27 13:11:42;;;;;;;9.10;3.80;;;;;;;;;;110413;1277;22104;-78
2023/04/27 13:14:11;;;;;;;10.50;3.10;;;;;;;;;;110418;1254;22167;-78
2023/04/27 13:16:38;;;;;;;9.30;3.20;;;;;;;;;;110313;1278;22091;-78
2023/04/27 13:19:05;;;;;;;7.90;3.30;;;;;;;;;;110408;1277;22126;-78
2023/04/27 13:21:32;;;;;;;6.80;2.80;;;;;;;;;;110321;1277;22721;-79
2023/04/27 13:24:01;;;;;;;8.20;3.40;;;;;;;;;;110299;1277;22989;-78
2023/04/27 13:26:28;;;;;;;8.00;3.20;;;;;;;;;;110743;1260;22943;-80
2023/04/27 13:28:56;;;;;;;7.20;3.10;;;;;;;;;;110402;1277;22102;-79
2023/04/27 13:31:23;;;;;;;7.10;3.20;;;;;;;;;;110426;1277;22130;-79
2023/04/27 13:33:50;;;;;;;8.00;2.90;;;;;;;;;;110298;1278;22123;-78
2023/04/27 13:36:17;;;;;;;8.20;3.40;;;;;;;;;;110506;1257;22500;-78
2023/04/27 13:38:44;;;;;;;10.10;3.30;;;;;;;;;;110276;1278;22110;-79
2023/04/27 13:41:11;;;;;;;8.70;3.00;;;;;;;;;;110244;1278;21685;-79
2023/04/27 13:43:38;;;;;;;9.30;3.30;;;;;;;;;;110360;1278;22207;-78
2023/04/27 13:46:05;;;;;;;10.60;3.00;;;;;;;;;;110554;1257;23157;-78
2023/04/27 13:48:31;;;;;;;9.90;3.40;;;;;;;;;;110379;1278;22105;-78
2023/04/27 13:50:58;;;;;;;8.80;3.20;;;;;;;;;;110294;1278;22115;-78
2023/04/27 13:53:25;;;;;;;10.00;3.10;;;;;;;;;;110293;1278;22090;-78
2023/04/27 13:55:56;;;;;;;8.60;3.30;;;;;;;;;;110451;1257;22143;-78
2023/04/27 13:58:23;;;;;;;8.40;2.90;;;;;;;;;;110361;1278;22130;-78
2023/04/27 14:00:51;;;;;;;8.50;3.10;;;;;;;;;;110265;1278;22127;-77
2023/04/27 14:03:18;;;;;;;8.30;2.70;;;;;;;;;;110362;1278;22123;-77
2023/04/27 14:05:47;;;;;;;9.10;3.40;;;;;;;;;;110413;1257;22118;-77
2023/04/27 14:08:13;;;;;;;7.40;3.10;;;;;;;;;;110290;1278;22194;-78
2023/04/27 14:10:40;;;;;;;10.70;3.40;;;;;;;;;;110404;1278;22119;-78
2023/04/27 14:13:07;;;;;;;10.10;3.10;;;;;;;;;;110387;1278;22138;-78
2023/04/27 14:15:36;;;;;;;9.50;3.50;;;;;;;;;;110278;1255;22775;-78
2023/04/27 14:18:04;;;;;;;10.50;3.90;;;;;;;;;;110287;1278;22971;-78
2023/04/27 14:20:30;;;;;;;10.10;3.80;;;;;;;;;;110278;1278;22775;-77
2023/04/27 14:22:57;;;;;;;10.80;3.30;;;;;;;;;;110384;1278;22200;-78
2023/04/27 14:25:24;;;;;;;10.40;3.70;;;;;;;;;;110355;1256;23193;-77
2023/04/27 14:27:51;;;;;;;11.70;3.70;;;;;;;;;;110161;1278;22128;-77
2023/04/27 14:33:40;;;;;;;12.80;3.90;;;;;;;;;;110343;1278;22987;-78
2023/04/27 14:36:07;;;;;;;10.60;3.80;;;;;;;;;;110315;1256;23033;-77
2023/04/27 14:38:34;;;;;;;8.60;3.50;;;;;;;;;;110314;1278;22854;-77
2023/04/27 14:41:01;;;;;;;9.50;3.70;;;;;;;;;;110200;1279;22272;-77
2023/04/27 14:43:27;;;;;;;9.60;3.70;;;;;;;;;;110194;1278;22823;-77
2023/04/27 14:45:54;;;;;;;9.80;4.10;;;;;;;;;;110135;1256;22164;-79
2023/04/27 14:48:21;;;;;;;12.30;4.10;;;;;;;;;;110173;1279;21962;-78
2023/04/27 14:50:48;;;;;;;22.70;9.60;;;;;;;;;;110290;1278;22186;-79
2023/04/27 14:53:14;;;;;;;12.50;4.10;;;;;;;;;;110196;1278;22716;-77
2023/04/27 14:55:44;;;;;;;15.40;9.00;;;;;;;;;;110143;1278;22093;-77
2023/04/27 14:58:11;;;;;;;11.40;6.00;;;;;;;;;;110576;1256;23056;-80